sensor_id;sensor_type;location;lat;lon;timestamp;temperature;humidity
38090;DHT22;23904;52.322;10.232;2022-09-09T00:00:17;15.20;99.90
38090;DHT22;23904;52.322;10.232;2022-09-09T00:03:08;15.20;99.90
38090;DHT22;23904;52.322;10.232;2022-09-09T00:08:19;15.30;99.90
38090;DHT22;23904;52.322;10.232;2022-09-09T00:10:54;15.30;99.90
38090;DHT22;23904;52.322;10.232;2022-09-09T00:13:37;15.30;99.90
38090;DHT22;23904;52.322;10.232;2022-09-09T00:24:26;15.20;99.90
38090;DHT22;23904;52.322;10.232;2022-09-09T00:26:58;15.20;99.90
38090;DHT22;23904;52.322;10.232;2022-09-09T00:29:33;15.10;99.90
38090;DHT22;23904;52.322;10.232;2022-09-09T00:32:11;15.10;99.90
38090;DHT22;23904;52.322;10.232;2022-09-09T00:37:38;15.10;99.90
38090;DHT22;23904;52.322;10.232;2022-09-09T00:40:18;15.10;99.90
38090;DHT22;23904;52.322;10.232;2022-09-09T00:43:01;15.00;99.90
38090;DHT22;23904;52.322;10.232;2022-09-09T00:48:16;15.00;99.90
38090;DHT22;23904;52.322;10.232;2022-09-09T00:50:59;15.00;99.90
38090;DHT22;23904;52.322;10.232;2022-09-09T00:53:51;15.00;99.90
38090;DHT22;23904;52.322;10.232;2022-09-09T00:56:20;15.00;99.90
38090;DHT22;23904;52.322;10.232;2022-09-09T00:59:07;15.00;99.90
38090;DHT22;23904;52.322;10.232;2022-09-09T01:01:36;15.00;99.90
38090;DHT22;23904;52.322;10.232;2022-09-09T01:04:11;15.00;99.90
38090;DHT22;23904;52.322;10.232;2022-09-09T01:06:41;15.00;99.90
38090;DHT22;23904;52.322;10.232;2022-09-09T01:14:41;14.90;99.90
38090;DHT22;23904;52.322;10.232;2022-09-09T01:28:05;14.80;99.90
38090;DHT22;23904;52.322;10.232;2022-09-09T01:30:37;14.80;99.90
38090;DHT22;23904;52.322;10.232;2022-09-09T01:33:03;14.80;99.90
38090;DHT22;23904;52.322;10.232;2022-09-09T01:38:22;14.80;99.90
38090;DHT22;23904;52.322;10.232;2022-09-09T01:40:49;14.70;99.90
38090;DHT22;23904;52.322;10.232;2022-09-09T01:43:18;14.70;99.90
38090;DHT22;23904;52.322;10.232;2022-09-09T01:45:46;14.70;99.90
38090;DHT22;23904;52.322;10.232;2022-09-09T01:48:15;14.70;99.90
38090;DHT22;23904;52.322;10.232;2022-09-09T01:50:41;14.70;99.90
38090;DHT22;23904;52.322;10.232;2022-09-09T01:53:06;14.70;99.90
38090;DHT22;23904;52.322;10.232;2022-09-09T01:55:37;14.70;99.90
38090;DHT22;23904;52.322;10.232;2022-09-09T02:00:43;14.70;99.90
38090;DHT22;23904;52.322;10.232;2022-09-09T02:03:24;14.70;99.90
38090;DHT22;23904;52.322;10.232;2022-09-09T02:08:40;14.70;99.90
38090;DHT22;23904;52.322;10.232;2022-09-09T02:11:15;14.70;99.90
38090;DHT22;23904;52.322;10.232;2022-09-09T02:13:43;14.70;99.90
38090;DHT22;23904;52.322;10.232;2022-09-09T02:16:30;14.80;99.90
38090;DHT22;23904;52.322;10.232;2022-09-09T02:19:01;14.80;99.90
38090;DHT22;23904;52.322;10.232;2022-09-09T02:21:30;14.80;99.90
38090;DHT22;23904;52.322;10.232;2022-09-09T02:23:58;14.80;99.90
38090;DHT22;23904;52.322;10.232;2022-09-09T02:26:26;14.80;99.90
38090;DHT22;23904;52.322;10.232;2022-09-09T02:28:55;14.80;99.90
38090;DHT22;23904;52.322;10.232;2022-09-09T02:31:24;14.80;99.90
38090;DHT22;23904;52.322;10.232;2022-09-09T02:33:59;14.80;99.90
38090;DHT22;23904;52.322;10.232;2022-09-09T02:36:29;14.90;99.90
38090;DHT22;23904;52.322;10.232;2022-09-09T02:38:56;14.90;99.90
38090;DHT22;23904;52.322;10.232;2022-09-09T02:41:27;14.90;99.90
38090;DHT22;23904;52.322;10.232;2022-09-09T02:43:53;14.90;99.90
38090;DHT22;23904;52.322;10.232;2022-09-09T02:51:53;14.80;99.90
38090;DHT22;23904;52.322;10.232;2022-09-09T02:54:23;14.80;99.90
38090;DHT22;23904;52.322;10.232;2022-09-09T02:56:53;14.80;99.90
38090;DHT22;23904;52.322;10.232;2022-09-09T02:59:22;14.80;99.90
38090;DHT22;23904;52.322;10.232;2022-09-09T03:01:50;14.80;99.90
38090;DHT22;23904;52.322;10.232;2022-09-09T03:04:15;14.80;99.90
38090;DHT22;23904;52.322;10.232;2022-09-09T03:06:41;14.80;99.90
38090;DHT22;23904;52.322;10.232;2022-09-09T03:09:07;14.80;99.90
38090;DHT22;23904;52.322;10.232;2022-09-09T03:11:35;14.80;99.90
38090;DHT22;23904;52.322;10.232;2022-09-09T03:14:02;14.80;99.90
38090;DHT22;23904;52.322;10.232;2022-09-09T03:16:28;14.80;99.90
38090;DHT22;23904;52.322;10.232;2022-09-09T03:18:54;14.80;99.90
38090;DHT22;23904;52.322;10.232;2022-09-09T03:21:19;14.80;99.90
38090;DHT22;23904;52.322;10.232;2022-09-09T03:23:45;14.80;99.90
38090;DHT22;23904;52.322;10.232;2022-09-09T03:26:10;14.80;99.90
38090;DHT22;23904;52.322;10.232;2022-09-09T03:28:36;14.80;99.90
38090;DHT22;23904;52.322;10.232;2022-09-09T03:31:03;14.80;99.90
38090;DHT22;23904;52.322;10.232;2022-09-09T03:33:29;14.80;99.90
38090;DHT22;23904;52.322;10.232;2022-09-09T03:35:55;14.80;99.90
38090;DHT22;23904;52.322;10.232;2022-09-09T03:38:25;14.80;99.90
38090;DHT22;23904;52.322;10.232;2022-09-09T03:40:52;14.80;99.90
38090;DHT22;23904;52.322;10.232;2022-09-09T03:43:21;14.90;99.90
38090;DHT22;23904;52.322;10.232;2022-09-09T03:45:47;14.90;99.90
38090;DHT22;23904;52.322;10.232;2022-09-09T03:48:13;14.80;99.90
38090;DHT22;23904;52.322;10.232;2022-09-09T03:50:44;14.80;99.90
38090;DHT22;23904;52.322;10.232;2022-09-09T03:53:10;14.80;99.90
38090;DHT22;23904;52.322;10.232;2022-09-09T03:55:35;14.80;99.90
38090;DHT22;23904;52.322;10.232;2022-09-09T03:58:01;14.80;99.90
38090;DHT22;23904;52.322;10.232;2022-09-09T04:00:26;14.80;99.90
38090;DHT22;23904;52.322;10.232;2022-09-09T04:02:52;14.90;99.90
38090;DHT22;23904;52.322;10.232;2022-09-09T04:05:22;14.90;99.90
38090;DHT22;23904;52.322;10.232;2022-09-09T04:07:47;14.90;99.90
38090;DHT22;23904;52.322;10.232;2022-09-09T04:10:13;15.00;99.90
38090;DHT22;23904;52.322;10.232;2022-09-09T04:12:39;15.00;99.90
38090;DHT22;23904;52.322;10.232;2022-09-09T04:15:05;15.00;99.90
38090;DHT22;23904;52.322;10.232;2022-09-09T04:17:30;15.10;99.90
38090;DHT22;23904;52.322;10.232;2022-09-09T04:19:56;15.10;99.90
38090;DHT22;23904;52.322;10.232;2022-09-09T04:22:22;15.10;99.90
38090;DHT22;23904;52.322;10.232;2022-09-09T04:24:47;15.20;99.90
38090;DHT22;23904;52.322;10.232;2022-09-09T04:27:13;15.20;99.90
38090;DHT22;23904;52.322;10.232;2022-09-09T04:29:38;15.30;99.90
38090;DHT22;23904;52.322;10.232;2022-09-09T04:32:04;15.20;99.90
38090;DHT22;23904;52.322;10.232;2022-09-09T04:34:30;15.20;99.90
38090;DHT22;23904;52.322;10.232;2022-09-09T04:36:56;15.30;99.90
38090;DHT22;23904;52.322;10.232;2022-09-09T04:39:22;15.30;99.90
38090;DHT22;23904;52.322;10.232;2022-09-09T04:41:48;15.30;99.90
38090;DHT22;23904;52.322;10.232;2022-09-09T04:44:13;15.40;99.90
38090;DHT22;23904;52.322;10.232;2022-09-09T04:46:39;15.40;99.90
38090;DHT22;23904;52.322;10.232;2022-09-09T04:49:06;15.40;99.90
38090;DHT22;23904;52.322;10.232;2022-09-09T04:51:32;15.40;99.90
38090;DHT22;23904;52.322;10.232;2022-09-09T04:53:57;15.40;99.90
38090;DHT22;23904;52.322;10.232;2022-09-09T04:56:23;15.50;99.90
38090;DHT22;23904;52.322;10.232;2022-09-09T04:58:48;15.50;99.90
38090;DHT22;23904;52.322;10.232;2022-09-09T05:01:21;15.50;99.90
38090;DHT22;23904;52.322;10.232;2022-09-09T05:03:48;15.50;99.90
38090;DHT22;23904;52.322;10.232;2022-09-09T05:06:16;15.50;99.90
38090;DHT22;23904;52.322;10.232;2022-09-09T05:08:43;15.50;99.90
38090;DHT22;23904;52.322;10.232;2022-09-09T05:11:17;15.50;99.90
38090;DHT22;23904;52.322;10.232;2022-09-09T05:13:44;15.60;99.90
38090;DHT22;23904;52.322;10.232;2022-09-09T05:16:10;15.60;99.90
38090;DHT22;23904;52.322;10.232;2022-09-09T05:18:37;15.60;99.90
38090;DHT22;23904;52.322;10.232;2022-09-09T05:21:03;15.60;99.90
38090;DHT22;23904;52.322;10.232;2022-09-09T05:23:28;15.70;99.90
38090;DHT22;23904;52.322;10.232;2022-09-09T05:25:57;15.80;99.90
38090;DHT22;23904;52.322;10.232;2022-09-09T05:28:24;15.80;99.90
38090;DHT22;23904;52.322;10.232;2022-09-09T05:30:58;15.80;99.90
38090;DHT22;23904;52.322;10.232;2022-09-09T05:33:25;15.80;99.90
38090;DHT22;23904;52.322;10.232;2022-09-09T05:36:02;15.90;99.90
38090;DHT22;23904;52.322;10.232;2022-09-09T05:38:30;15.90;99.90
38090;DHT22;23904;52.322;10.232;2022-09-09T05:40:56;15.90;99.90
38090;DHT22;23904;52.322;10.232;2022-09-09T05:43:22;15.90;99.90
38090;DHT22;23904;52.322;10.232;2022-09-09T05:45:58;16.00;99.90
38090;DHT22;23904;52.322;10.232;2022-09-09T05:48:28;16.10;99.90
38090;DHT22;23904;52.322;10.232;2022-09-09T05:50:55;16.10;99.90
38090;DHT22;23904;52.322;10.232;2022-09-09T05:53:20;16.10;99.90
38090;DHT22;23904;52.322;10.232;2022-09-09T05:55:46;16.10;99.90
38090;DHT22;23904;52.322;10.232;2022-09-09T05:58:13;16.20;99.90
38090;DHT22;23904;52.322;10.232;2022-09-09T06:00:40;16.20;99.90
38090;DHT22;23904;52.322;10.232;2022-09-09T06:03:05;16.20;99.90
38090;DHT22;23904;52.322;10.232;2022-09-09T06:05:31;16.30;99.90
38090;DHT22;23904;52.322;10.232;2022-09-09T06:07:56;16.30;99.90
38090;DHT22;23904;52.322;10.232;2022-09-09T06:10:22;16.30;99.90
38090;DHT22;23904;52.322;10.232;2022-09-09T06:12:47;16.30;99.90
38090;DHT22;23904;52.322;10.232;2022-09-09T06:15:13;16.40;99.90
38090;DHT22;23904;52.322;10.232;2022-09-09T06:17:38;16.40;99.90
38090;DHT22;23904;52.322;10.232;2022-09-09T06:20:04;16.50;99.90
38090;DHT22;23904;52.322;10.232;2022-09-09T06:22:30;16.50;99.90
38090;DHT22;23904;52.322;10.232;2022-09-09T06:24:56;16.50;99.90
38090;DHT22;23904;52.322;10.232;2022-09-09T06:27:22;16.60;99.90
38090;DHT22;23904;52.322;10.232;2022-09-09T06:29:47;16.60;99.90
38090;DHT22;23904;52.322;10.232;2022-09-09T06:32:13;16.70;99.90
38090;DHT22;23904;52.322;10.232;2022-09-09T06:34:39;16.70;99.90
38090;DHT22;23904;52.322;10.232;2022-09-09T06:37:05;16.80;99.90
38090;DHT22;23904;52.322;10.232;2022-09-09T06:39:32;16.80;99.90
38090;DHT22;23904;52.322;10.232;2022-09-09T06:41:57;16.80;99.90
38090;DHT22;23904;52.322;10.232;2022-09-09T06:44:24;16.80;99.90
38090;DHT22;23904;52.322;10.232;2022-09-09T06:46:51;16.80;99.90
38090;DHT22;23904;52.322;10.232;2022-09-09T06:49:17;16.80;99.90
38090;DHT22;23904;52.322;10.232;2022-09-09T06:51:43;16.90;99.90
38090;DHT22;23904;52.322;10.232;2022-09-09T06:54:09;17.00;99.90
38090;DHT22;23904;52.322;10.232;2022-09-09T06:56:37;17.10;99.90
38090;DHT22;23904;52.322;10.232;2022-09-09T06:59:07;17.20;99.90
38090;DHT22;23904;52.322;10.232;2022-09-09T07:01:36;17.20;99.90
38090;DHT22;23904;52.322;10.232;2022-09-09T07:04:03;17.20;99.90
38090;DHT22;23904;52.322;10.232;2022-09-09T07:06:34;17.20;99.90
38090;DHT22;23904;52.322;10.232;2022-09-09T07:09:02;17.20;99.90
38090;DHT22;23904;52.322;10.232;2022-09-09T07:11:31;17.20;99.90
38090;DHT22;23904;52.322;10.232;2022-09-09T07:13:58;17.40;99.90
38090;DHT22;23904;52.322;10.232;2022-09-09T07:16:25;17.40;99.90
38090;DHT22;23904;52.322;10.232;2022-09-09T07:18:51;17.50;99.90
38090;DHT22;23904;52.322;10.232;2022-09-09T07:21:18;17.60;99.90
38090;DHT22;23904;52.322;10.232;2022-09-09T07:23:44;17.70;99.90
38090;DHT22;23904;52.322;10.232;2022-09-09T07:26:12;17.60;99.90
38090;DHT22;23904;52.322;10.232;2022-09-09T07:28:39;17.60;99.90
38090;DHT22;23904;52.322;10.232;2022-09-09T07:31:05;17.70;99.90
38090;DHT22;23904;52.322;10.232;2022-09-09T07:33:34;17.80;99.90
38090;DHT22;23904;52.322;10.232;2022-09-09T07:36:12;17.70;99.90
38090;DHT22;23904;52.322;10.232;2022-09-09T07:38:46;17.60;99.90
38090;DHT22;23904;52.322;10.232;2022-09-09T07:41:15;17.70;99.90
38090;DHT22;23904;52.322;10.232;2022-09-09T07:43:43;17.80;99.90
38090;DHT22;23904;52.322;10.232;2022-09-09T07:46:10;17.90;99.90
38090;DHT22;23904;52.322;10.232;2022-09-09T07:48:37;18.00;99.90
38090;DHT22;23904;52.322;10.232;2022-09-09T07:51:11;18.10;99.90
38090;DHT22;23904;52.322;10.232;2022-09-09T07:53:38;18.10;99.90
38090;DHT22;23904;52.322;10.232;2022-09-09T07:56:07;18.10;99.90
38090;DHT22;23904;52.322;10.232;2022-09-09T07:58:35;18.10;99.90
38090;DHT22;23904;52.322;10.232;2022-09-09T08:01:06;18.20;99.90
38090;DHT22;23904;52.322;10.232;2022-09-09T08:03:32;18.40;99.90
38090;DHT22;23904;52.322;10.232;2022-09-09T08:06:01;18.40;99.90
38090;DHT22;23904;52.322;10.232;2022-09-09T08:08:27;18.50;99.90
38090;DHT22;23904;52.322;10.232;2022-09-09T08:10:53;18.60;99.90
38090;DHT22;23904;52.322;10.232;2022-09-09T08:13:18;18.70;99.90
38090;DHT22;23904;52.322;10.232;2022-09-09T08:15:44;18.80;99.90
38090;DHT22;23904;52.322;10.232;2022-09-09T08:18:09;18.80;99.90
38090;DHT22;23904;52.322;10.232;2022-09-09T08:20:36;19.10;99.90
38090;DHT22;23904;52.322;10.232;2022-09-09T08:23:02;19.40;99.90
38090;DHT22;23904;52.322;10.232;2022-09-09T08:25:28;19.70;99.90
38090;DHT22;23904;52.322;10.232;2022-09-09T08:27:54;19.90;99.90
38090;DHT22;23904;52.322;10.232;2022-09-09T08:30:19;20.50;99.90
38090;DHT22;23904;52.322;10.232;2022-09-09T08:32:45;21.30;99.90
38090;DHT22;23904;52.322;10.232;2022-09-09T08:35:10;23.10;99.90
38090;DHT22;23904;52.322;10.232;2022-09-09T08:37:36;25.00;99.90
38090;DHT22;23904;52.322;10.232;2022-09-09T08:40:02;27.00;94.60
38090;DHT22;23904;52.322;10.232;2022-09-09T08:42:35;28.00;90.60
38090;DHT22;23904;52.322;10.232;2022-09-09T08:45:14;28.90;87.80
38090;DHT22;23904;52.322;10.232;2022-09-09T08:50:36;29.00;88.20
38090;DHT22;23904;52.322;10.232;2022-09-09T08:58:28;32.60;70.30
38090;DHT22;23904;52.322;10.232;2022-09-09T09:03:59;31.90;67.30
38090;DHT22;23904;52.322;10.232;2022-09-09T09:06:38;32.40;65.90
38090;DHT22;23904;52.322;10.232;2022-09-09T09:12:00;32.70;65.90
38090;DHT22;23904;52.322;10.232;2022-09-09T09:14:31;33.40;60.80
38090;DHT22;23904;52.322;10.232;2022-09-09T09:17:06;31.70;62.90
38090;DHT22;23904;52.322;10.232;2022-09-09T09:19:33;29.40;67.80
38090;DHT22;23904;52.322;10.232;2022-09-09T09:22:17;28.50;73.30
38090;DHT22;23904;52.322;10.232;2022-09-09T09:32:59;32.40;63.00
38090;DHT22;23904;52.322;10.232;2022-09-09T09:35:25;33.20;60.60
38090;DHT22;23904;52.322;10.232;2022-09-09T09:37:51;32.10;64.60
38090;DHT22;23904;52.322;10.232;2022-09-09T09:40:19;32.10;66.50
38090;DHT22;23904;52.322;10.232;2022-09-09T09:42:53;31.30;66.50
38090;DHT22;23904;52.322;10.232;2022-09-09T09:45:41;30.70;66.10
38090;DHT22;23904;52.322;10.232;2022-09-09T09:48:11;29.70;66.70
38090;DHT22;23904;52.322;10.232;2022-09-09T09:50:49;28.90;70.40
38090;DHT22;23904;52.322;10.232;2022-09-09T09:53:24;28.30;72.20
38090;DHT22;23904;52.322;10.232;2022-09-09T09:56:13;27.70;74.80
38090;DHT22;23904;52.322;10.232;2022-09-09T10:01:30;30.10;70.30
38090;DHT22;23904;52.322;10.232;2022-09-09T10:04:01;31.40;66.40
38090;DHT22;23904;52.322;10.232;2022-09-09T10:06:35;32.00;63.80
38090;DHT22;23904;52.322;10.232;2022-09-09T10:09:17;30.80;66.80
38090;DHT22;23904;52.322;10.232;2022-09-09T10:12:11;30.30;68.30
38090;DHT22;23904;52.322;10.232;2022-09-09T10:26:12;33.20;57.80
38090;DHT22;23904;52.322;10.232;2022-09-09T10:31:53;30.60;61.10
38090;DHT22;23904;52.322;10.232;2022-09-09T10:37:18;27.80;68.80
38090;DHT22;23904;52.322;10.232;2022-09-09T10:39:53;27.00;71.60
38090;DHT22;23904;52.322;10.232;2022-09-09T10:42:29;26.20;75.00
38090;DHT22;23904;52.322;10.232;2022-09-09T10:50:54;28.60;71.00
38090;DHT22;23904;52.322;10.232;2022-09-09T10:53:36;29.00;66.50
38090;DHT22;23904;52.322;10.232;2022-09-09T10:56:12;28.60;67.00
38090;DHT22;23904;52.322;10.232;2022-09-09T10:59:06;28.50;68.00
38090;DHT22;23904;52.322;10.232;2022-09-09T11:01:44;29.20;67.70
38090;DHT22;23904;52.322;10.232;2022-09-09T11:04:33;29.60;65.60
38090;DHT22;23904;52.322;10.232;2022-09-09T11:07:05;30.70;63.80
38090;DHT22;23904;52.322;10.232;2022-09-09T11:09:37;31.60;60.60
38090;DHT22;23904;52.322;10.232;2022-09-09T11:12:03;32.40;59.70
38090;DHT22;23904;52.322;10.232;2022-09-09T11:14:39;32.40;59.80
38090;DHT22;23904;52.322;10.232;2022-09-09T11:17:12;33.20;59.50
38090;DHT22;23904;52.322;10.232;2022-09-09T11:19:40;34.50;56.20
38090;DHT22;23904;52.322;10.232;2022-09-09T11:22:32;34.50;56.50
38090;DHT22;23904;52.322;10.232;2022-09-09T11:25:10;33.90;55.40
38090;DHT22;23904;52.322;10.232;2022-09-09T11:30:34;35.00;53.20
38090;DHT22;23904;52.322;10.232;2022-09-09T11:33:23;33.00;56.80
38090;DHT22;23904;52.322;10.232;2022-09-09T11:39:23;29.60;60.00
38090;DHT22;23904;52.322;10.232;2022-09-09T11:41:52;28.60;62.90
38090;DHT22;23904;52.322;10.232;2022-09-09T11:44:26;27.40;66.70
38090;DHT22;23904;52.322;10.232;2022-09-09T11:46:53;26.80;67.60
38090;DHT22;23904;52.322;10.232;2022-09-09T11:50:06;26.20;69.50
38090;DHT22;23904;52.322;10.232;2022-09-09T11:52:35;25.80;71.30
38090;DHT22;23904;52.322;10.232;2022-09-09T11:55:23;25.50;74.20
38090;DHT22;23904;52.322;10.232;2022-09-09T11:58:04;24.80;78.00
38090;DHT22;23904;52.322;10.232;2022-09-09T12:00:36;23.80;81.80
38090;DHT22;23904;52.322;10.232;2022-09-09T12:03:08;23.30;87.90
38090;DHT22;23904;52.322;10.232;2022-09-09T12:05:50;23.00;89.40
38090;DHT22;23904;52.322;10.232;2022-09-09T12:08:26;22.70;91.40
38090;DHT22;23904;52.322;10.232;2022-09-09T12:10:57;22.20;92.20
38090;DHT22;23904;52.322;10.232;2022-09-09T12:13:26;21.70;99.40
38090;DHT22;23904;52.322;10.232;2022-09-09T12:15:54;21.30;99.90
38090;DHT22;23904;52.322;10.232;2022-09-09T12:18:25;20.40;99.90
38090;DHT22;23904;52.322;10.232;2022-09-09T12:21:15;19.40;99.90
38090;DHT22;23904;52.322;10.232;2022-09-09T12:23:55;18.50;99.90
38090;DHT22;23904;52.322;10.232;2022-09-09T12:26:34;18.30;99.90
38090;DHT22;23904;52.322;10.232;2022-09-09T12:32:09;17.70;99.90
38090;DHT22;23904;52.322;10.232;2022-09-09T12:34:40;17.70;99.90
38090;DHT22;23904;52.322;10.232;2022-09-09T12:37:29;17.50;99.90
38090;DHT22;23904;52.322;10.232;2022-09-09T12:39:58;17.50;99.90
38090;DHT22;23904;52.322;10.232;2022-09-09T12:42:25;17.60;99.90
38090;DHT22;23904;52.322;10.232;2022-09-09T12:44:59;17.50;99.90
38090;DHT22;23904;52.322;10.232;2022-09-09T12:47:33;17.60;99.90
38090;DHT22;23904;52.322;10.232;2022-09-09T12:50:00;17.70;99.90
38090;DHT22;23904;52.322;10.232;2022-09-09T12:52:32;17.80;99.90
38090;DHT22;23904;52.322;10.232;2022-09-09T12:55:01;17.90;99.90
38090;DHT22;23904;52.322;10.232;2022-09-09T12:57:33;17.90;99.90
38090;DHT22;23904;52.322;10.232;2022-09-09T13:00:25;18.10;99.90
38090;DHT22;23904;52.322;10.232;2022-09-09T13:02:57;18.30;99.90
38090;DHT22;23904;52.322;10.232;2022-09-09T13:05:27;18.50;99.90
38090;DHT22;23904;52.322;10.232;2022-09-09T13:08:04;18.70;99.90
38090;DHT22;23904;52.322;10.232;2022-09-09T13:10:36;19.00;99.90
38090;DHT22;23904;52.322;10.232;2022-09-09T13:13:04;19.10;99.90
38090;DHT22;23904;52.322;10.232;2022-09-09T13:15:30;19.30;99.90
38090;DHT22;23904;52.322;10.232;2022-09-09T13:17:59;19.40;99.90
38090;DHT22;23904;52.322;10.232;2022-09-09T13:20:26;19.40;99.90
38090;DHT22;23904;52.322;10.232;2022-09-09T13:22:54;19.60;99.90
38090;DHT22;23904;52.322;10.232;2022-09-09T13:25:29;19.60;99.90
38090;DHT22;23904;52.322;10.232;2022-09-09T13:28:02;19.30;99.90
38090;DHT22;23904;52.322;10.232;2022-09-09T13:30:29;19.40;99.90
38090;DHT22;23904;52.322;10.232;2022-09-09T13:35:30;19.30;99.90
38090;DHT22;23904;52.322;10.232;2022-09-09T13:37:57;19.10;99.90
38090;DHT22;23904;52.322;10.232;2022-09-09T13:40:24;19.00;99.90
38090;DHT22;23904;52.322;10.232;2022-09-09T13:42:56;18.80;99.90
38090;DHT22;23904;52.322;10.232;2022-09-09T13:45:24;18.60;99.90
38090;DHT22;23904;52.322;10.232;2022-09-09T13:47:52;18.40;99.90
38090;DHT22;23904;52.322;10.232;2022-09-09T13:50:25;18.30;99.90
38090;DHT22;23904;52.322;10.232;2022-09-09T13:52:53;18.30;99.90
38090;DHT22;23904;52.322;10.232;2022-09-09T13:55:22;18.30;99.90
38090;DHT22;23904;52.322;10.232;2022-09-09T13:57:58;18.20;99.90
38090;DHT22;23904;52.322;10.232;2022-09-09T14:00:26;17.90;99.90
38090;DHT22;23904;52.322;10.232;2022-09-09T14:02:52;17.80;99.90
38090;DHT22;23904;52.322;10.232;2022-09-09T14:05:18;17.80;99.90
38090;DHT22;23904;52.322;10.232;2022-09-09T14:07:44;17.80;99.90
38090;DHT22;23904;52.322;10.232;2022-09-09T14:10:11;17.80;99.90
38090;DHT22;23904;52.322;10.232;2022-09-09T14:12:36;17.80;99.90
38090;DHT22;23904;52.322;10.232;2022-09-09T14:15:03;18.00;99.90
38090;DHT22;23904;52.322;10.232;2022-09-09T14:17:29;18.20;99.90
38090;DHT22;23904;52.322;10.232;2022-09-09T14:19:55;18.40;99.90
38090;DHT22;23904;52.322;10.232;2022-09-09T14:22:21;18.60;99.90
38090;DHT22;23904;52.322;10.232;2022-09-09T14:24:47;18.80;99.90
38090;DHT22;23904;52.322;10.232;2022-09-09T14:27:13;19.10;99.90
38090;DHT22;23904;52.322;10.232;2022-09-09T14:29:39;19.20;99.90
38090;DHT22;23904;52.322;10.232;2022-09-09T14:32:04;19.30;99.90
38090;DHT22;23904;52.322;10.232;2022-09-09T14:34:30;19.40;99.90
38090;DHT22;23904;52.322;10.232;2022-09-09T14:36:59;19.70;99.90
38090;DHT22;23904;52.322;10.232;2022-09-09T14:39:24;20.00;99.90
38090;DHT22;23904;52.322;10.232;2022-09-09T14:41:50;20.00;99.90
38090;DHT22;23904;52.322;10.232;2022-09-09T14:44:15;20.10;99.90
38090;DHT22;23904;52.322;10.232;2022-09-09T14:46:41;20.20;99.90
38090;DHT22;23904;52.322;10.232;2022-09-09T14:49:08;20.40;99.90
38090;DHT22;23904;52.322;10.232;2022-09-09T14:51:35;20.60;99.90
38090;DHT22;23904;52.322;10.232;2022-09-09T14:54:01;20.80;99.90
38090;DHT22;23904;52.322;10.232;2022-09-09T14:56:29;20.90;99.90
38090;DHT22;23904;52.322;10.232;2022-09-09T14:58:57;21.10;99.90
38090;DHT22;23904;52.322;10.232;2022-09-09T15:01:23;21.10;99.90
38090;DHT22;23904;52.322;10.232;2022-09-09T15:03:52;21.20;99.90
38090;DHT22;23904;52.322;10.232;2022-09-09T15:06:19;21.40;99.90
38090;DHT22;23904;52.322;10.232;2022-09-09T15:08:46;21.50;99.90
38090;DHT22;23904;52.322;10.232;2022-09-09T15:11:13;21.30;99.90
38090;DHT22;23904;52.322;10.232;2022-09-09T15:13:40;21.20;99.90
38090;DHT22;23904;52.322;10.232;2022-09-09T15:16:11;21.30;99.90
38090;DHT22;23904;52.322;10.232;2022-09-09T15:18:37;21.10;99.90
38090;DHT22;23904;52.322;10.232;2022-09-09T15:21:05;21.10;99.90
38090;DHT22;23904;52.322;10.232;2022-09-09T15:23:32;21.00;99.90
38090;DHT22;23904;52.322;10.232;2022-09-09T15:25:58;21.00;99.90
38090;DHT22;23904;52.322;10.232;2022-09-09T15:28:23;20.90;99.90
38090;DHT22;23904;52.322;10.232;2022-09-09T15:30:50;20.80;99.90
38090;DHT22;23904;52.322;10.232;2022-09-09T15:33:17;20.80;99.90
38090;DHT22;23904;52.322;10.232;2022-09-09T15:35:43;20.70;99.90
38090;DHT22;23904;52.322;10.232;2022-09-09T15:38:09;20.70;99.90
38090;DHT22;23904;52.322;10.232;2022-09-09T15:40:34;20.60;99.90
38090;DHT22;23904;52.322;10.232;2022-09-09T15:43:00;20.60;99.90
38090;DHT22;23904;52.322;10.232;2022-09-09T15:45:26;20.60;99.90
38090;DHT22;23904;52.322;10.232;2022-09-09T15:47:52;20.50;99.90
38090;DHT22;23904;52.322;10.232;2022-09-09T15:50:17;20.50;99.90
38090;DHT22;23904;52.322;10.232;2022-09-09T15:52:43;20.40;99.90
38090;DHT22;23904;52.322;10.232;2022-09-09T15:55:09;20.30;99.90
38090;DHT22;23904;52.322;10.232;2022-09-09T15:57:35;20.40;99.90
38090;DHT22;23904;52.322;10.232;2022-09-09T16:00:02;20.50;99.90
38090;DHT22;23904;52.322;10.232;2022-09-09T16:02:28;20.60;99.90
38090;DHT22;23904;52.322;10.232;2022-09-09T16:04:55;20.70;99.90
38090;DHT22;23904;52.322;10.232;2022-09-09T16:07:22;20.70;99.90
38090;DHT22;23904;52.322;10.232;2022-09-09T16:09:48;20.80;99.90
38090;DHT22;23904;52.322;10.232;2022-09-09T16:12:16;20.90;99.90
38090;DHT22;23904;52.322;10.232;2022-09-09T16:14:42;20.90;99.90
38090;DHT22;23904;52.322;10.232;2022-09-09T16:17:08;20.80;99.90
38090;DHT22;23904;52.322;10.232;2022-09-09T16:19:34;20.70;99.90
38090;DHT22;23904;52.322;10.232;2022-09-09T16:22:00;20.50;99.90
38090;DHT22;23904;52.322;10.232;2022-09-09T16:24:26;20.40;99.90
38090;DHT22;23904;52.322;10.232;2022-09-09T16:26:53;20.20;99.90
38090;DHT22;23904;52.322;10.232;2022-09-09T16:29:20;20.20;99.90
38090;DHT22;23904;52.322;10.232;2022-09-09T16:31:48;20.00;99.90
38090;DHT22;23904;52.322;10.232;2022-09-09T16:34:14;20.00;99.90
38090;DHT22;23904;52.322;10.232;2022-09-09T16:36:41;19.90;99.90
38090;DHT22;23904;52.322;10.232;2022-09-09T16:39:12;19.90;99.90
38090;DHT22;23904;52.322;10.232;2022-09-09T16:41:39;19.90;99.90
38090;DHT22;23904;52.322;10.232;2022-09-09T16:44:08;19.90;99.90
38090;DHT22;23904;52.322;10.232;2022-09-09T16:46:36;20.00;99.90
38090;DHT22;23904;52.322;10.232;2022-09-09T16:49:05;19.90;99.90
38090;DHT22;23904;52.322;10.232;2022-09-09T16:51:42;19.90;99.90
38090;DHT22;23904;52.322;10.232;2022-09-09T16:54:09;19.80;99.90
38090;DHT22;23904;52.322;10.232;2022-09-09T16:56:37;19.80;99.90
38090;DHT22;23904;52.322;10.232;2022-09-09T16:59:06;19.70;99.90
38090;DHT22;23904;52.322;10.232;2022-09-09T17:01:34;19.60;99.90
38090;DHT22;23904;52.322;10.232;2022-09-09T17:04:04;19.60;99.90
38090;DHT22;23904;52.322;10.232;2022-09-09T17:06:32;19.50;99.90
38090;DHT22;23904;52.322;10.232;2022-09-09T17:09:02;19.40;99.90
38090;DHT22;23904;52.322;10.232;2022-09-09T17:11:28;19.30;99.90
38090;DHT22;23904;52.322;10.232;2022-09-09T17:13:55;19.30;99.90
38090;DHT22;23904;52.322;10.232;2022-09-09T17:16:23;19.30;99.90